sensor_id;sensor_type;location;lat;lon;timestamp;P1;durP1;ratioP1;P2;durP2;ratioP2
15665;SDS011;20725;51.196;3.510;2022-12-18T00:01:02;77.00;;;39.03;;
15665;SDS011;20725;51.196;3.510;2022-12-18T00:03:31;84.53;;;38.53;;
15665;SDS011;20725;51.196;3.510;2022-12-18T00:05:58;82.10;;;39.47;;
15665;SDS011;20725;51.196;3.510;2022-12-18T00:08:25;79.37;;;39.03;;
15665;SDS011;20725;51.196;3.510;2022-12-18T00:10:52;78.03;;;39.47;;
15665;SDS011;20725;51.196;3.510;2022-12-18T00:13:21;79.30;;;39.03;;
15665;SDS011;20725;51.196;3.510;2022-12-18T00:15:47;78.83;;;38.73;;
15665;SDS011;20725;51.196;3.510;2022-12-18T00:18:14;78.27;;;39.27;;
15665;SDS011;20725;51.196;3.510;2022-12-18T00:20:41;77.87;;;38.33;;
15665;SDS011;20725;51.196;3.510;2022-12-18T00:23:08;74.30;;;38.30;;
15665;SDS011;20725;51.196;3.510;2022-12-18T00:25:35;78.73;;;39.87;;
15665;SDS011;20725;51.196;3.510;2022-12-18T00:28:02;82.10;;;38.77;;
15665;SDS011;20725;51.196;3.510;2022-12-18T00:30:31;68.17;;;36.77;;
15665;SDS011;20725;51.196;3.510;2022-12-18T00:32:58;73.30;;;37.63;;
15665;SDS011;20725;51.196;3.510;2022-12-18T00:35:25;79.43;;;38.40;;
15665;SDS011;20725;51.196;3.510;2022-12-18T00:37:52;80.03;;;40.10;;
15665;SDS011;20725;51.196;3.510;2022-12-18T00:40:19;76.50;;;39.70;;
15665;SDS011;20725;51.196;3.510;2022-12-18T00:42:46;77.40;;;37.30;;
15665;SDS011;20725;51.196;3.510;2022-12-18T00:45:20;79.10;;;39.83;;
15665;SDS011;20725;51.196;3.510;2022-12-18T00:47:49;72.30;;;38.87;;
15665;SDS011;20725;51.196;3.510;2022-12-18T00:50:16;81.63;;;39.47;;
15665;SDS011;20725;51.196;3.510;2022-12-18T00:52:43;91.47;;;43.60;;
15665;SDS011;20725;51.196;3.510;2022-12-18T00:55:10;92.77;;;43.57;;
15665;SDS011;20725;51.196;3.510;2022-12-18T00:57:37;96.43;;;44.47;;
15665;SDS011;20725;51.196;3.510;2022-12-18T01:00:05;87.43;;;46.00;;
15665;SDS011;20725;51.196;3.510;2022-12-18T01:02:33;95.93;;;48.23;;
15665;SDS011;20725;51.196;3.510;2022-12-18T01:05:02;92.33;;;46.00;;
15665;SDS011;20725;51.196;3.510;2022-12-18T01:07:29;87.40;;;46.03;;
15665;SDS011;20725;51.196;3.510;2022-12-18T01:09:56;93.23;;;48.37;;
15665;SDS011;20725;51.196;3.510;2022-12-18T01:12:23;105.37;;;48.13;;
15665;SDS011;20725;51.196;3.510;2022-12-18T01:14:50;88.17;;;47.10;;
15665;SDS011;20725;51.196;3.510;2022-12-18T01:17:16;97.83;;;48.90;;
15665;SDS011;20725;51.196;3.510;2022-12-18T01:19:43;88.67;;;45.53;;
15665;SDS011;20725;51.196;3.510;2022-12-18T01:22:11;93.00;;;46.03;;
15665;SDS011;20725;51.196;3.510;2022-12-18T01:24:38;93.93;;;46.37;;
15665;SDS011;20725;51.196;3.510;2022-12-18T01:27:05;88.70;;;45.90;;
15665;SDS011;20725;51.196;3.510;2022-12-18T01:29:32;89.73;;;44.87;;
15665;SDS011;20725;51.196;3.510;2022-12-18T01:31:59;94.03;;;46.17;;
15665;SDS011;20725;51.196;3.510;2022-12-18T01:34:26;92.80;;;46.47;;
15665;SDS011;20725;51.196;3.510;2022-12-18T01:36:53;102.97;;;50.13;;
15665;SDS011;20725;51.196;3.510;2022-12-18T01:39:21;88.87;;;45.03;;
15665;SDS011;20725;51.196;3.510;2022-12-18T01:41:48;90.00;;;45.83;;
15665;SDS011;20725;51.196;3.510;2022-12-18T01:44:55;90.43;;;46.13;;
15665;SDS011;20725;51.196;3.510;2022-12-18T01:47:24;86.40;;;44.17;;
15665;SDS011;20725;51.196;3.510;2022-12-18T01:49:55;87.60;;;44.33;;
15665;SDS011;20725;51.196;3.510;2022-12-18T01:52:23;82.17;;;43.20;;
15665;SDS011;20725;51.196;3.510;2022-12-18T01:54:53;91.27;;;47.27;;
15665;SDS011;20725;51.196;3.510;2022-12-18T01:57:22;87.60;;;43.93;;
15665;SDS011;20725;51.196;3.510;2022-12-18T01:59:52;94.20;;;44.60;;
15665;SDS011;20725;51.196;3.510;2022-12-18T02:02:20;88.63;;;44.73;;
15665;SDS011;20725;51.196;3.510;2022-12-18T02:04:48;89.13;;;43.47;;
15665;SDS011;20725;51.196;3.510;2022-12-18T02:07:17;89.93;;;43.47;;
15665;SDS011;20725;51.196;3.510;2022-12-18T02:09:50;90.40;;;43.93;;
15665;SDS011;20725;51.196;3.510;2022-12-18T02:12:25;95.07;;;43.67;;
15665;SDS011;20725;51.196;3.510;2022-12-18T02:15:02;85.83;;;41.97;;
15665;SDS011;20725;51.196;3.510;2022-12-18T02:17:36;93.00;;;43.57;;
15665;SDS011;20725;51.196;3.510;2022-12-18T02:20:09;87.83;;;40.77;;
15665;SDS011;20725;51.196;3.510;2022-12-18T02:22:44;86.33;;;41.70;;
15665;SDS011;20725;51.196;3.510;2022-12-18T02:25:26;81.27;;;39.27;;
15665;SDS011;20725;51.196;3.510;2022-12-18T02:28:06;77.03;;;38.80;;
15665;SDS011;20725;51.196;3.510;2022-12-18T02:30:38;89.67;;;40.23;;
15665;SDS011;20725;51.196;3.510;2022-12-18T02:33:07;81.83;;;37.87;;
15665;SDS011;20725;51.196;3.510;2022-12-18T02:35:37;80.20;;;37.87;;
15665;SDS011;20725;51.196;3.510;2022-12-18T02:38:06;75.97;;;35.87;;
15665;SDS011;20725;51.196;3.510;2022-12-18T02:40:33;79.83;;;38.17;;
15665;SDS011;20725;51.196;3.510;2022-12-18T02:43:02;78.13;;;37.97;;
15665;SDS011;20725;51.196;3.510;2022-12-18T02:45:34;77.30;;;37.43;;
15665;SDS011;20725;51.196;3.510;2022-12-18T02:48:02;72.43;;;38.07;;
15665;SDS011;20725;51.196;3.510;2022-12-18T02:50:30;81.40;;;37.37;;
15665;SDS011;20725;51.196;3.510;2022-12-18T02:53:03;72.13;;;37.67;;
15665;SDS011;20725;51.196;3.510;2022-12-18T02:55:41;77.13;;;36.00;;
15665;SDS011;20725;51.196;3.510;2022-12-18T02:58:19;76.00;;;37.20;;
15665;SDS011;20725;51.196;3.510;2022-12-18T03:00:53;71.83;;;34.60;;
15665;SDS011;20725;51.196;3.510;2022-12-18T03:03:28;75.53;;;36.33;;
15665;SDS011;20725;51.196;3.510;2022-12-18T03:06:00;76.73;;;36.40;;
15665;SDS011;20725;51.196;3.510;2022-12-18T03:08:32;63.13;;;33.30;;
15665;SDS011;20725;51.196;3.510;2022-12-18T03:11:05;66.00;;;33.80;;
15665;SDS011;20725;51.196;3.510;2022-12-18T03:13:36;62.07;;;31.37;;
15665;SDS011;20725;51.196;3.510;2022-12-18T03:16:07;68.27;;;34.03;;
15665;SDS011;20725;51.196;3.510;2022-12-18T03:18:37;71.33;;;35.27;;
15665;SDS011;20725;51.196;3.510;2022-12-18T03:21:09;66.40;;;33.47;;
15665;SDS011;20725;51.196;3.510;2022-12-18T03:23:40;68.60;;;34.13;;
15665;SDS011;20725;51.196;3.510;2022-12-18T03:26:10;73.90;;;34.73;;
15665;SDS011;20725;51.196;3.510;2022-12-18T03:28:43;57.87;;;32.70;;
15665;SDS011;20725;51.196;3.510;2022-12-18T03:31:16;64.23;;;34.40;;
15665;SDS011;20725;51.196;3.510;2022-12-18T03:33:46;75.97;;;35.13;;
15665;SDS011;20725;51.196;3.510;2022-12-18T03:36:18;68.23;;;33.50;;
15665;SDS011;20725;51.196;3.510;2022-12-18T03:38:45;65.83;;;33.23;;
15665;SDS011;20725;51.196;3.510;2022-12-18T03:41:14;76.47;;;36.23;;
15665;SDS011;20725;51.196;3.510;2022-12-18T03:43:47;73.40;;;34.70;;
15665;SDS011;20725;51.196;3.510;2022-12-18T03:46:20;67.03;;;33.33;;
15665;SDS011;20725;51.196;3.510;2022-12-18T03:48:54;65.23;;;33.97;;
15665;SDS011;20725;51.196;3.510;2022-12-18T03:51:26;64.03;;;33.17;;
15665;SDS011;20725;51.196;3.510;2022-12-18T03:54:03;68.50;;;34.50;;
15665;SDS011;20725;51.196;3.510;2022-12-18T03:56:33;65.40;;;33.20;;
15665;SDS011;20725;51.196;3.510;2022-12-18T03:59:08;70.37;;;34.07;;
15665;SDS011;20725;51.196;3.510;2022-12-18T04:01:39;66.10;;;32.93;;
15665;SDS011;20725;51.196;3.510;2022-12-18T04:04:08;62.20;;;31.23;;
15665;SDS011;20725;51.196;3.510;2022-12-18T04:06:37;67.97;;;33.60;;
15665;SDS011;20725;51.196;3.510;2022-12-18T04:09:06;60.23;;;30.57;;
15665;SDS011;20725;51.196;3.510;2022-12-18T04:11:33;57.33;;;31.93;;
15665;SDS011;20725;51.196;3.510;2022-12-18T04:14:00;63.77;;;31.70;;
15665;SDS011;20725;51.196;3.510;2022-12-18T04:16:28;60.17;;;32.43;;
15665;SDS011;20725;51.196;3.510;2022-12-18T04:18:55;59.83;;;30.20;;
15665;SDS011;20725;51.196;3.510;2022-12-18T04:21:22;67.70;;;31.93;;
15665;SDS011;20725;51.196;3.510;2022-12-18T04:23:49;57.93;;;29.47;;
15665;SDS011;20725;51.196;3.510;2022-12-18T04:26:16;57.53;;;29.70;;
15665;SDS011;20725;51.196;3.510;2022-12-18T04:28:43;56.27;;;29.97;;
15665;SDS011;20725;51.196;3.510;2022-12-18T04:31:10;53.97;;;29.40;;
15665;SDS011;20725;51.196;3.510;2022-12-18T04:33:39;55.30;;;29.70;;
15665;SDS011;20725;51.196;3.510;2022-12-18T04:36:06;55.47;;;30.07;;
15665;SDS011;20725;51.196;3.510;2022-12-18T04:38:33;54.30;;;29.30;;
15665;SDS011;20725;51.196;3.510;2022-12-18T04:41:00;57.63;;;29.63;;
15665;SDS011;20725;51.196;3.510;2022-12-18T04:43:27;57.77;;;29.73;;
15665;SDS011;20725;51.196;3.510;2022-12-18T04:46:00;59.23;;;27.90;;
15665;SDS011;20725;51.196;3.510;2022-12-18T04:48:28;52.83;;;28.10;;
15665;SDS011;20725;51.196;3.510;2022-12-18T04:50:56;53.63;;;27.43;;
15665;SDS011;20725;51.196;3.510;2022-12-18T04:53:23;52.33;;;27.37;;
15665;SDS011;20725;51.196;3.510;2022-12-18T04:55:50;51.23;;;27.00;;
15665;SDS011;20725;51.196;3.510;2022-12-18T04:58:17;50.30;;;27.37;;
15665;SDS011;20725;51.196;3.510;2022-12-18T05:00:44;51.20;;;27.57;;
15665;SDS011;20725;51.196;3.510;2022-12-18T05:03:11;49.93;;;26.93;;
15665;SDS011;20725;51.196;3.510;2022-12-18T05:05:37;54.77;;;27.50;;
15665;SDS011;20725;51.196;3.510;2022-12-18T05:08:06;48.80;;;26.90;;
15665;SDS011;20725;51.196;3.510;2022-12-18T05:10:32;47.83;;;26.30;;
15665;SDS011;20725;51.196;3.510;2022-12-18T05:12:59;52.60;;;29.17;;
15665;SDS011;20725;51.196;3.510;2022-12-18T05:15:27;56.17;;;27.73;;
15665;SDS011;20725;51.196;3.510;2022-12-18T05:17:55;51.83;;;27.70;;
15665;SDS011;20725;51.196;3.510;2022-12-18T05:20:22;50.17;;;27.57;;
15665;SDS011;20725;51.196;3.510;2022-12-18T05:22:49;54.90;;;26.30;;
15665;SDS011;20725;51.196;3.510;2022-12-18T05:25:18;50.80;;;27.10;;
15665;SDS011;20725;51.196;3.510;2022-12-18T05:27:45;50.47;;;26.23;;
15665;SDS011;20725;51.196;3.510;2022-12-18T05:30:13;46.03;;;24.77;;
15665;SDS011;20725;51.196;3.510;2022-12-18T05:32:40;50.27;;;26.63;;
15665;SDS011;20725;51.196;3.510;2022-12-18T05:35:08;48.27;;;24.20;;
15665;SDS011;20725;51.196;3.510;2022-12-18T05:37:36;44.40;;;25.43;;
15665;SDS011;20725;51.196;3.510;2022-12-18T05:40:03;42.27;;;23.97;;
15665;SDS011;20725;51.196;3.510;2022-12-18T05:42:32;49.63;;;25.77;;
15665;SDS011;20725;51.196;3.510;2022-12-18T05:44:59;49.57;;;26.27;;
15665;SDS011;20725;51.196;3.510;2022-12-18T05:47:26;45.23;;;25.20;;
15665;SDS011;20725;51.196;3.510;2022-12-18T05:49:54;49.97;;;26.17;;
15665;SDS011;20725;51.196;3.510;2022-12-18T05:52:21;44.90;;;24.87;;
15665;SDS011;20725;51.196;3.510;2022-12-18T05:54:48;50.67;;;26.67;;
15665;SDS011;20725;51.196;3.510;2022-12-18T05:57:15;50.93;;;24.93;;
15665;SDS011;20725;51.196;3.510;2022-12-18T05:59:44;48.50;;;25.93;;
15665;SDS011;20725;51.196;3.510;2022-12-18T06:02:11;54.37;;;26.37;;
15665;SDS011;20725;51.196;3.510;2022-12-18T06:04:37;50.73;;;25.83;;
15665;SDS011;20725;51.196;3.510;2022-12-18T06:07:04;47.17;;;26.40;;
15665;SDS011;20725;51.196;3.510;2022-12-18T06:09:31;53.57;;;26.07;;
15665;SDS011;20725;51.196;3.510;2022-12-18T06:11:58;47.47;;;25.77;;
15665;SDS011;20725;51.196;3.510;2022-12-18T06:14:25;43.00;;;24.47;;
15665;SDS011;20725;51.196;3.510;2022-12-18T06:16:53;47.40;;;25.43;;
15665;SDS011;20725;51.196;3.510;2022-12-18T06:19:20;47.37;;;24.77;;
15665;SDS011;20725;51.196;3.510;2022-12-18T06:21:47;43.10;;;24.50;;
15665;SDS011;20725;51.196;3.510;2022-12-18T06:24:16;38.40;;;23.33;;
15665;SDS011;20725;51.196;3.510;2022-12-18T06:26:43;47.97;;;25.47;;
15665;SDS011;20725;51.196;3.510;2022-12-18T06:29:10;46.63;;;23.67;;
15665;SDS011;20725;51.196;3.510;2022-12-18T06:31:37;44.67;;;24.83;;
15665;SDS011;20725;51.196;3.510;2022-12-18T06:34:05;32.37;;;19.63;;
15665;SDS011;20725;51.196;3.510;2022-12-18T06:36:32;45.37;;;23.00;;
15665;SDS011;20725;51.196;3.510;2022-12-18T06:38:59;44.07;;;23.60;;
15665;SDS011;20725;51.196;3.510;2022-12-18T06:41:26;48.93;;;24.03;;
15665;SDS011;20725;51.196;3.510;2022-12-18T06:43:53;39.50;;;22.23;;
15665;SDS011;20725;51.196;3.510;2022-12-18T06:46:20;39.33;;;22.43;;
15665;SDS011;20725;51.196;3.510;2022-12-18T06:48:48;41.70;;;23.70;;
15665;SDS011;20725;51.196;3.510;2022-12-18T06:51:18;38.57;;;22.20;;
15665;SDS011;20725;51.196;3.510;2022-12-18T06:53:46;43.00;;;24.37;;
15665;SDS011;20725;51.196;3.510;2022-12-18T06:56:13;32.80;;;19.17;;
15665;SDS011;20725;51.196;3.510;2022-12-18T06:58:40;36.40;;;21.30;;
15665;SDS011;20725;51.196;3.510;2022-12-18T07:01:08;39.90;;;23.67;;
15665;SDS011;20725;51.196;3.510;2022-12-18T07:03:36;40.10;;;22.73;;
15665;SDS011;20725;51.196;3.510;2022-12-18T07:06:04;42.00;;;23.60;;
15665;SDS011;20725;51.196;3.510;2022-12-18T07:08:32;39.50;;;22.53;;
15665;SDS011;20725;51.196;3.510;2022-12-18T07:11:02;39.80;;;22.53;;
15665;SDS011;20725;51.196;3.510;2022-12-18T07:13:29;41.73;;;23.53;;
15665;SDS011;20725;51.196;3.510;2022-12-18T07:16:02;39.00;;;22.10;;
15665;SDS011;20725;51.196;3.510;2022-12-18T07:18:30;38.43;;;22.27;;
15665;SDS011;20725;51.196;3.510;2022-12-18T07:21:02;34.60;;;20.83;;
15665;SDS011;20725;51.196;3.510;2022-12-18T07:23:31;40.53;;;22.13;;
15665;SDS011;20725;51.196;3.510;2022-12-18T07:26:01;42.50;;;22.03;;
15665;SDS011;20725;51.196;3.510;2022-12-18T07:28:30;36.63;;;21.83;;
15665;SDS011;20725;51.196;3.510;2022-12-18T07:31:01;40.17;;;21.77;;
15665;SDS011;20725;51.196;3.510;2022-12-18T07:33:29;34.10;;;20.77;;
15665;SDS011;20725;51.196;3.510;2022-12-18T07:35:56;40.37;;;21.17;;
15665;SDS011;20725;51.196;3.510;2022-12-18T07:38:34;23.97;;;15.13;;
15665;SDS011;20725;51.196;3.510;2022-12-18T07:41:02;28.40;;;18.33;;
15665;SDS011;20725;51.196;3.510;2022-12-18T07:43:29;31.83;;;19.17;;
15665;SDS011;20725;51.196;3.510;2022-12-18T07:45:59;30.67;;;19.70;;
15665;SDS011;20725;51.196;3.510;2022-12-18T07:48:27;31.40;;;18.43;;
15665;SDS011;20725;51.196;3.510;2022-12-18T07:50:57;33.43;;;19.00;;
15665;SDS011;20725;51.196;3.510;2022-12-18T07:53:26;29.23;;;19.10;;
15665;SDS011;20725;51.196;3.510;2022-12-18T07:55:56;34.30;;;20.53;;
15665;SDS011;20725;51.196;3.510;2022-12-18T07:58:24;31.60;;;18.43;;
15665;SDS011;20725;51.196;3.510;2022-12-18T08:00:53;17.30;;;12.50;;
15665;SDS011;20725;51.196;3.510;2022-12-18T08:03:28;19.07;;;11.93;;
15665;SDS011;20725;51.196;3.510;2022-12-18T08:05:58;24.43;;;14.47;;
15665;SDS011;20725;51.196;3.510;2022-12-18T08:08:27;29.27;;;17.23;;
15665;SDS011;20725;51.196;3.510;2022-12-18T08:10:57;31.03;;;20.13;;
15665;SDS011;20725;51.196;3.510;2022-12-18T08:13:36;26.03;;;16.97;;
15665;SDS011;20725;51.196;3.510;2022-12-18T08:16:05;27.43;;;18.57;;
15665;SDS011;20725;51.196;3.510;2022-12-18T08:18:34;30.13;;;18.20;;
15665;SDS011;20725;51.196;3.510;2022-12-18T08:21:08;30.97;;;19.50;;
15665;SDS011;20725;51.196;3.510;2022-12-18T08:23:36;23.83;;;17.17;;
15665;SDS011;20725;51.196;3.510;2022-12-18T08:26:06;29.43;;;18.73;;
15665;SDS011;20725;51.196;3.510;2022-12-18T08:28:34;25.60;;;17.33;;
15665;SDS011;20725;51.196;3.510;2022-12-18T08:31:01;29.73;;;17.37;;
15665;SDS011;20725;51.196;3.510;2022-12-18T08:33:28;30.60;;;18.23;;
15665;SDS011;20725;51.196;3.510;2022-12-18T08:35:56;25.90;;;15.50;;
15665;SDS011;20725;51.196;3.510;2022-12-18T08:38:25;21.10;;;15.60;;
15665;SDS011;20725;51.196;3.510;2022-12-18T08:40:57;27.37;;;17.43;;
15665;SDS011;20725;51.196;3.510;2022-12-18T08:43:27;21.97;;;15.17;;
15665;SDS011;20725;51.196;3.510;2022-12-18T08:46:12;20.70;;;15.70;;
15665;SDS011;20725;51.196;3.510;2022-12-18T08:48:39;22.97;;;15.33;;
15665;SDS011;20725;51.196;3.510;2022-12-18T08:51:06;22.67;;;15.07;;
15665;SDS011;20725;51.196;3.510;2022-12-18T08:53:35;24.20;;;15.27;;
15665;SDS011;20725;51.196;3.510;2022-12-18T08:56:05;22.87;;;14.30;;
15665;SDS011;20725;51.196;3.510;2022-12-18T08:58:36;20.03;;;13.43;;
15665;SDS011;20725;51.196;3.510;2022-12-18T09:01:04;19.67;;;12.77;;
15665;SDS011;20725;51.196;3.510;2022-12-18T09:03:32;19.33;;;13.50;;
15665;SDS011;20725;51.196;3.510;2022-12-18T09:05:59;21.27;;;15.33;;
15665;SDS011;20725;51.196;3.510;2022-12-18T09:08:27;21.87;;;16.23;;
15665;SDS011;20725;51.196;3.510;2022-12-18T09:10:55;22.40;;;15.67;;
15665;SDS011;20725;51.196;3.510;2022-12-18T09:13:22;16.47;;;13.00;;
15665;SDS011;20725;51.196;3.510;2022-12-18T09:15:52;21.47;;;15.37;;
15665;SDS011;20725;51.196;3.510;2022-12-18T09:18:22;21.83;;;15.43;;
15665;SDS011;20725;51.196;3.510;2022-12-18T09:20:50;22.00;;;15.07;;
15665;SDS011;20725;51.196;3.510;2022-12-18T09:23:18;21.03;;;14.77;;
15665;SDS011;20725;51.196;3.510;2022-12-18T09:25:45;28.13;;;15.77;;
15665;SDS011;20725;51.196;3.510;2022-12-18T09:28:14;20.90;;;14.40;;
15665;SDS011;20725;51.196;3.510;2022-12-18T09:30:45;26.00;;;15.40;;
15665;SDS011;20725;51.196;3.510;2022-12-18T09:33:15;19.73;;;13.87;;
15665;SDS011;20725;51.196;3.510;2022-12-18T09:35:44;18.97;;;13.00;;
15665;SDS011;20725;51.196;3.510;2022-12-18T09:38:14;21.23;;;14.63;;
15665;SDS011;20725;51.196;3.510;2022-12-18T09:40:43;19.33;;;13.70;;
15665;SDS011;20725;51.196;3.510;2022-12-18T09:43:13;21.93;;;15.13;;
15665;SDS011;20725;51.196;3.510;2022-12-18T09:45:44;20.87;;;14.83;;
15665;SDS011;20725;51.196;3.510;2022-12-18T09:48:18;19.90;;;14.00;;
15665;SDS011;20725;51.196;3.510;2022-12-18T09:50:47;18.70;;;13.80;;
15665;SDS011;20725;51.196;3.510;2022-12-18T09:53:19;20.03;;;14.70;;
15665;SDS011;20725;51.196;3.510;2022-12-18T09:55:50;18.30;;;13.30;;
15665;SDS011;20725;51.196;3.510;2022-12-18T09:58:22;15.90;;;13.50;;
15665;SDS011;20725;51.196;3.510;2022-12-18T10:00:54;18.20;;;14.50;;
15665;SDS011;20725;51.196;3.510;2022-12-18T10:03:24;18.77;;;13.20;;
15665;SDS011;20725;51.196;3.510;2022-12-18T10:05:54;10.73;;;9.57;;
15665;SDS011;20725;51.196;3.510;2022-12-18T10:08:32;17.70;;;13.63;;
15665;SDS011;20725;51.196;3.510;2022-12-18T10:11:11;16.87;;;13.20;;
15665;SDS011;20725;51.196;3.510;2022-12-18T10:13:57;19.60;;;13.87;;
15665;SDS011;20725;51.196;3.510;2022-12-18T10:16:33;16.37;;;13.30;;
15665;SDS011;20725;51.196;3.510;2022-12-18T10:19:16;17.13;;;12.60;;
15665;SDS011;20725;51.196;3.510;2022-12-18T10:21:51;9.53;;;8.37;;
15665;SDS011;20725;51.196;3.510;2022-12-18T10:24:31;22.77;;;13.67;;
15665;SDS011;20725;51.196;3.510;2022-12-18T10:27:09;17.07;;;12.60;;
15665;SDS011;20725;51.196;3.510;2022-12-18T10:29:41;16.10;;;12.30;;
15665;SDS011;20725;51.196;3.510;2022-12-18T10:32:13;15.27;;;11.27;;
15665;SDS011;20725;51.196;3.510;2022-12-18T10:34:48;14.43;;;11.53;;
15665;SDS011;20725;51.196;3.510;2022-12-18T10:37:17;18.50;;;12.87;;
15665;SDS011;20725;51.196;3.510;2022-12-18T10:39:45;14.03;;;10.33;;
15665;SDS011;20725;51.196;3.510;2022-12-18T10:42:16;14.60;;;10.67;;
15665;SDS011;20725;51.196;3.510;2022-12-18T10:44:44;14.73;;;10.30;;
15665;SDS011;20725;51.196;3.510;2022-12-18T10:47:13;13.73;;;9.83;;
15665;SDS011;20725;51.196;3.510;2022-12-18T10:49:45;13.50;;;9.77;;
15665;SDS011;20725;51.196;3.510;2022-12-18T10:52:18;16.33;;;11.47;;
15665;SDS011;20725;51.196;3.510;2022-12-18T10:54:48;14.53;;;11.33;;
15665;SDS011;20725;51.196;3.510;2022-12-18T10:57:18;13.33;;;9.63;;
15665;SDS011;20725;51.196;3.510;2022-12-18T10:59:59;12.73;;;8.83;;
15665;SDS011;20725;51.196;3.510;2022-12-18T11:02:47;17.17;;;12.57;;
15665;SDS011;20725;51.196;3.510;2022-12-18T11:05:26;14.87;;;10.77;;
15665;SDS011;20725;51.196;3.510;2022-12-18T11:07:55;17.07;;;9.40;;
15665;SDS011;20725;51.196;3.510;2022-12-18T11:10:25;16.87;;;12.60;;
15665;SDS011;20725;51.196;3.510;2022-12-18T11:13:09;17.07;;;12.37;;
15665;SDS011;20725;51.196;3.510;2022-12-18T11:15:43;14.43;;;11.40;;
15665;SDS011;20725;51.196;3.510;2022-12-18T11:18:16;12.60;;;10.03;;
15665;SDS011;20725;51.196;3.510;2022-12-18T11:20:51;16.63;;;12.80;;
15665;SDS011;20725;51.196;3.510;2022-12-18T11:23:20;16.67;;;11.13;;
15665;SDS011;20725;51.196;3.510;2022-12-18T11:25:53;18.03;;;11.90;;
15665;SDS011;20725;51.196;3.510;2022-12-18T11:31:22;16.87;;;11.40;;
15665;SDS011;20725;51.196;3.510;2022-12-18T11:33:55;18.00;;;14.20;;
15665;SDS011;20725;51.196;3.510;2022-12-18T11:36:32;17.63;;;13.50;;
15665;SDS011;20725;51.196;3.510;2022-12-18T11:39:12;18.73;;;14.20;;
15665;SDS011;20725;51.196;3.510;2022-12-18T11:41:46;16.80;;;13.37;;
15665;SDS011;20725;51.196;3.510;2022-12-18T11:44:38;12.70;;;9.97;;
15665;SDS011;20725;51.196;3.510;2022-12-18T11:47:11;19.10;;;14.43;;
15665;SDS011;20725;51.196;3.510;2022-12-18T11:49:45;18.13;;;12.30;;
15665;SDS011;20725;51.196;3.510;2022-12-18T11:52:18;18.47;;;14.33;;
15665;SDS011;20725;51.196;3.510;2022-12-18T11:54:53;10.80;;;8.83;;
15665;SDS011;20725;51.196;3.510;2022-12-18T11:57:28;18.03;;;13.77;;
15665;SDS011;20725;51.196;3.510;2022-12-18T12:00:03;17.30;;;12.93;;
15665;SDS011;20725;51.196;3.510;2022-12-18T12:02:41;15.10;;;11.50;;
15665;SDS011;20725;51.196;3.510;2022-12-18T12:05:29;16.90;;;11.77;;
15665;SDS011;20725;51.196;3.510;2022-12-18T12:08:08;18.93;;;14.27;;
15665;SDS011;20725;51.196;3.510;2022-12-18T12:10:48;19.17;;;15.43;;
15665;SDS011;20725;51.196;3.510;2022-12-18T12:13:23;21.80;;;14.63;;
15665;SDS011;20725;51.196;3.510;2022-12-18T12:16:04;19.97;;;15.00;;
15665;SDS011;20725;51.196;3.510;2022-12-18T12:18:41;20.17;;;14.47;;
15665;SDS011;20725;51.196;3.510;2022-12-18T12:21:19;19.90;;;16.13;;
15665;SDS011;20725;51.196;3.510;2022-12-18T12:23:54;19.67;;;15.00;;
15665;SDS011;20725;51.196;3.510;2022-12-18T12:26:32;17.77;;;14.13;;
15665;SDS011;20725;51.196;3.510;2022-12-18T12:29:13;13.20;;;10.93;;
15665;SDS011;20725;51.196;3.510;2022-12-18T12:31:58;21.47;;;15.57;;
15665;SDS011;20725;51.196;3.510;2022-12-18T12:34:34;16.97;;;13.03;;
15665;SDS011;20725;51.196;3.510;2022-12-18T12:37:15;17.73;;;15.00;;
15665;SDS011;20725;51.196;3.510;2022-12-18T12:39:50;18.07;;;12.97;;
15665;SDS011;20725;51.196;3.510;2022-12-18T12:42:20;19.80;;;14.33;;
15665;SDS011;20725;51.196;3.510;2022-12-18T12:45:18;18.60;;;14.40;;
15665;SDS011;20725;51.196;3.510;2022-12-18T12:47:52;20.13;;;16.07;;
15665;SDS011;20725;51.196;3.510;2022-12-18T12:50:21;19.37;;;13.93;;
15665;SDS011;20725;51.196;3.510;2022-12-18T12:52:50;24.23;;;16.27;;
15665;SDS011;20725;51.196;3.510;2022-12-18T12:55:23;20.90;;;15.37;;
15665;SDS011;20725;51.196;3.510;2022-12-18T12:57:55;24.03;;;18.47;;
15665;SDS011;20725;51.196;3.510;2022-12-18T13:00:29;23.07;;;15.10;;
15665;SDS011;20725;51.196;3.510;2022-12-18T13:03:07;25.20;;;16.87;;
15665;SDS011;20725;51.196;3.510;2022-12-18T13:05:42;16.57;;;11.77;;
15665;SDS011;20725;51.196;3.510;2022-12-18T13:08:22;27.77;;;18.73;;
15665;SDS011;20725;51.196;3.510;2022-12-18T13:10:52;26.87;;;18.83;;
15665;SDS011;20725;51.196;3.510;2022-12-18T13:13:52;21.23;;;15.53;;
15665;SDS011;20725;51.196;3.510;2022-12-18T13:16:21;18.27;;;14.13;;
15665;SDS011;20725;51.196;3.510;2022-12-18T13:18:50;27.70;;;18.83;;
15665;SDS011;20725;51.196;3.510;2022-12-18T13:21:21;29.93;;;19.20;;
15665;SDS011;20725;51.196;3.510;2022-12-18T13:23:52;28.57;;;18.43;;
15665;SDS011;20725;51.196;3.510;2022-12-18T13:26:31;23.73;;;15.73;;
15665;SDS011;20725;51.196;3.510;2022-12-18T13:29:02;26.33;;;18.20;;
15665;SDS011;20725;51.196;3.510;2022-12-18T13:34:34;31.27;;;19.87;;
15665;SDS011;20725;51.196;3.510;2022-12-18T13:43:26;28.17;;;19.03;;
15665;SDS011;20725;51.196;3.510;2022-12-18T13:46:06;27.27;;;17.27;;
15665;SDS011;20725;51.196;3.510;2022-12-18T13:48:55;27.77;;;17.53;;
15665;SDS011;20725;51.196;3.510;2022-12-18T13:51:27;26.97;;;17.97;;
15665;SDS011;20725;51.196;3.510;2022-12-18T13:54:01;17.60;;;12.37;;
15665;SDS011;20725;51.196;3.510;2022-12-18T13:56:42;27.37;;;17.30;;
15665;SDS011;20725;51.196;3.510;2022-12-18T13:59:22;23.60;;;15.60;;
15665;SDS011;20725;51.196;3.510;2022-12-18T14:01:51;28.37;;;19.30;;
15665;SDS011;20725;51.196;3.510;2022-12-18T14:04:25;33.43;;;20.43;;
15665;SDS011;20725;51.196;3.510;2022-12-18T14:06:57;27.83;;;17.23;;
15665;SDS011;20725;51.196;3.510;2022-12-18T14:09:29;34.83;;;20.43;;
15665;SDS011;20725;51.196;3.510;2022-12-18T14:11:58;29.20;;;19.70;;
15665;SDS011;20725;51.196;3.510;2022-12-18T14:14:42;29.40;;;18.30;;
15665;SDS011;20725;51.196;3.510;2022-12-18T14:17:12;22.60;;;13.53;;
15665;SDS011;20725;51.196;3.510;2022-12-18T14:19:44;25.37;;;14.33;;
15665;SDS011;20725;51.196;3.510;2022-12-18T14:22:14;30.77;;;19.37;;
15665;SDS011;20725;51.196;3.510;2022-12-18T14:24:45;27.80;;;17.47;;
15665;SDS011;20725;51.196;3.510;2022-12-18T14:27:20;23.93;;;15.57;;
15665;SDS011;20725;51.196;3.510;2022-12-18T14:29:51;19.80;;;12.80;;
15665;SDS011;20725;51.196;3.510;2022-12-18T14:32:20;21.57;;;13.70;;
15665;SDS011;20725;51.196;3.510;2022-12-18T14:34:49;21.63;;;14.67;;
15665;SDS011;20725;51.196;3.510;2022-12-18T14:37:21;32.40;;;17.73;;
15665;SDS011;20725;51.196;3.510;2022-12-18T14:39:56;31.80;;;20.43;;
15665;SDS011;20725;51.196;3.510;2022-12-18T14:42:25;31.73;;;19.00;;
15665;SDS011;20725;51.196;3.510;2022-12-18T14:48:00;32.70;;;20.33;;
15665;SDS011;20725;51.196;3.510;2022-12-18T14:50:32;29.37;;;14.73;;
15665;SDS011;20725;51.196;3.510;2022-12-18T14:52:59;20.43;;;12.47;;
15665;SDS011;20725;51.196;3.510;2022-12-18T14:55:27;31.67;;;18.37;;
15665;SDS011;20725;51.196;3.510;2022-12-18T14:57:54;24.47;;;15.47;;